Time;durP1;ratioP1;P1;durP2;ratioP2;P2;SDS_P1;SDS_P2;PMS_P1;PMS_P2;Temp;Humidity;BMP_temperature;BMP_pressure;BME280_temperature;BME280_humidity;BME280_pressure;Samples;Min_cycle;Max_cycle;Signal;HPM_P1;HPM_P2
2023/09/06 00:00:12;;;;;;;14.97;14.20;;;19.00;99.90;;;;;;4953859;28;20486;-78
2023/09/06 00:02:40;;;;;;;14.70;14.03;;;18.80;99.90;;;;;;4950579;28;20487;-79
2023/09/06 00:05:10;;;;;;;14.87;14.17;;;18.90;99.90;;;;;;4952446;28;20551;-78
2023/09/06 00:07:38;;;;;;;14.60;13.80;;;18.80;99.90;;;;;;4950639;28;20460;-79
2023/09/06 00:10:06;;;;;;;14.67;14.00;;;18.80;99.90;;;;;;4947212;28;21270;-78
2023/09/06 00:12:34;;;;;;;14.17;13.57;;;18.90;99.90;;;;;;4955112;28;20459;-78
2023/09/06 00:15:03;;;;;;;14.50;13.90;;;18.90;99.90;;;;;;4950888;28;20494;-78
2023/09/06 00:17:31;;;;;;;14.70;14.07;;;18.80;99.90;;;;;;4952592;28;20493;-78
2023/09/06 00:19:59;;;;;;;14.87;14.20;;;18.80;99.90;;;;;;4952511;28;20489;-79
2023/09/06 00:22:29;;;;;;;14.00;13.30;;;18.80;99.90;;;;;;4950319;28;20464;-77
2023/09/06 00:24:57;;;;;;;14.70;14.10;;;18.70;99.90;;;;;;4952321;28;20473;-79
2023/09/06 00:27:26;;;;;;;15.07;14.23;;;18.70;99.90;;;;;;4954260;28;20458;-78
2023/09/06 00:29:54;;;;;;;14.60;13.53;;;18.60;99.90;;;;;;4950573;28;20457;-79
2023/09/06 00:32:22;;;;;;;13.60;13.00;;;18.60;99.90;;;;;;4947750;28;20449;-78
2023/09/06 00:34:50;;;;;;;13.97;13.40;;;18.60;99.90;;;;;;4950114;28;20492;-78
2023/09/06 00:37:19;;;;;;;14.40;13.70;;;18.50;99.90;;;;;;4952581;28;20881;-79
2023/09/06 00:39:48;;;;;;;14.07;13.47;;;18.60;99.90;;;;;;4952473;28;20476;-78
2023/09/06 00:42:17;;;;;;;14.23;13.60;;;18.50;99.90;;;;;;4951145;28;21237;-79
2023/09/06 00:44:46;;;;;;;15.47;14.80;;;18.60;99.90;;;;;;4952970;28;20505;-78
2023/09/06 00:47:14;;;;;;;15.50;14.70;;;18.50;99.90;;;;;;4956018;28;20467;-78
2023/09/06 00:49:42;;;;;;;15.50;14.80;;;18.50;99.90;;;;;;4955205;28;20957;-78
2023/09/06 00:52:11;;;;;;;14.50;13.93;;;18.50;99.90;;;;;;4955253;28;20488;-78
2023/09/06 00:54:39;;;;;;;14.73;14.03;;;18.50;99.90;;;;;;4954136;28;20476;-78
2023/09/06 00:57:09;;;;;;;15.10;14.40;;;18.50;99.90;;;;;;4957162;28;20447;-79
2023/09/06 00:59:39;;;;;;;14.80;14.10;;;18.40;99.90;;;;;;4956318;28;20483;-78
2023/09/06 01:02:08;;;;;;;13.80;13.30;;;18.40;99.90;;;;;;4955498;28;21356;-77
2023/09/06 01:04:37;;;;;;;15.10;14.40;;;18.40;99.90;;;;;;4954534;28;20510;-78
2023/09/06 01:07:06;;;;;;;14.37;13.77;;;18.40;99.90;;;;;;4953868;28;20192;-78
2023/09/06 01:09:35;;;;;;;14.63;13.93;;;18.40;99.90;;;;;;4958346;28;20464;-79
2023/09/06 01:12:03;;;;;;;14.03;13.53;;;18.30;99.90;;;;;;4957657;28;20543;-78
2023/09/06 01:14:33;;;;;;;14.30;13.43;;;18.30;99.90;;;;;;4955271;28;20543;-79
2023/09/06 01:17:01;;;;;;;14.60;13.70;;;18.20;99.90;;;;;;4960992;28;20448;-79
2023/09/06 01:19:32;;;;;;;14.00;13.40;;;18.20;99.90;;;;;;4959733;28;20567;-79
2023/09/06 01:22:07;;;;;;;14.70;14.00;;;18.20;99.90;;;;;;4958703;28;20460;-78
2023/09/06 01:24:38;;;;;;;15.27;14.57;;;18.10;99.90;;;;;;4955426;28;20529;-79
2023/09/06 01:27:07;;;;;;;14.30;13.70;;;18.10;99.90;;;;;;4958206;28;20587;-78
2023/09/06 01:29:36;;;;;;;14.30;13.60;;;18.00;99.90;;;;;;4956810;28;20449;-78
2023/09/06 01:32:05;;;;;;;15.00;14.20;;;17.90;99.90;;;;;;4958756;28;20483;-79
2023/09/06 01:34:33;;;;;;;14.30;13.70;;;17.90;99.90;;;;;;4948994;28;20805;-79
2023/09/06 01:37:02;;;;;;;14.13;13.63;;;17.90;99.90;;;;;;4956844;28;20996;-78
2023/09/06 01:39:30;;;;;;;15.00;14.20;;;17.90;99.90;;;;;;4957662;28;20535;-79
2023/09/06 01:41:59;;;;;;;15.60;14.80;;;17.90;99.90;;;;;;4955476;28;20459;-79
2023/09/06 01:44:28;;;;;;;14.80;14.20;;;17.90;99.90;;;;;;4954276;28;20493;-79
2023/09/06 01:46:56;;;;;;;14.67;13.80;;;17.80;99.90;;;;;;4959002;28;20475;-78
2023/09/06 01:49:24;;;;;;;16.43;15.67;;;17.70;99.90;;;;;;4953363;28;20558;-78
2023/09/06 01:51:57;;;;;;;14.73;14.13;;;17.70;99.90;;;;;;4955480;28;20474;-79
2023/09/06 01:54:25;;;;;;;14.43;13.90;;;17.70;99.90;;;;;;4950546;28;21051;-79
2023/09/06 01:56:53;;;;;;;14.57;13.87;;;17.70;99.90;;;;;;4955049;28;20481;-79
2023/09/06 01:59:23;;;;;;;14.50;13.90;;;17.70;99.90;;;;;;4955161;28;20453;-78
2023/09/06 02:01:54;;;;;;;15.20;14.50;;;17.70;99.90;;;;;;4958685;28;20461;-78
2023/09/06 02:04:23;;;;;;;14.97;14.37;;;17.60;99.90;;;;;;4957792;28;20567;-78
2023/09/06 02:06:51;;;;;;;14.60;13.87;;;17.60;99.90;;;;;;4953907;28;20472;-79
2023/09/06 02:09:19;;;;;;;13.93;13.23;;;17.60;99.90;;;;;;4956678;28;20513;-79
2023/09/06 02:11:47;;;;;;;16.07;15.27;;;17.60;99.90;;;;;;4957416;28;21025;-77
2023/09/06 02:14:15;;;;;;;20.93;19.23;;;17.60;99.90;;;;;;4956384;28;20470;-77
2023/09/06 02:16:45;;;;;;;15.57;14.67;;;17.60;99.90;;;;;;4956072;28;20448;-78
2023/09/06 02:19:13;;;;;;;16.30;15.37;;;17.50;99.90;;;;;;4958365;28;20460;-78
2023/09/06 02:21:42;;;;;;;15.30;14.50;;;17.50;99.90;;;;;;4957694;28;20486;-79
2023/09/06 02:24:10;;;;;;;15.10;14.10;;;17.50;99.90;;;;;;4951886;28;20443;-77
2023/09/06 02:26:38;;;;;;;15.67;14.87;;;17.50;99.90;;;;;;4957842;28;20830;-78
2023/09/06 02:29:06;;;;;;;15.93;15.10;;;17.50;99.90;;;;;;4957908;28;21016;-78
2023/09/06 02:31:34;;;;;;;15.70;15.00;;;17.40;99.90;;;;;;4970762;28;20527;-77
2023/09/06 02:34:04;;;;;;;16.20;15.30;;;17.40;1.00;;;;;;4955575;28;20455;-79
2023/09/06 02:36:32;;;;;;;15.03;14.43;;;17.40;1.00;;;;;;4957410;28;20445;-78
2023/09/06 02:39:02;;;;;;;14.70;14.00;;;17.30;1.00;;;;;;4958681;28;20482;-79
2023/09/06 02:41:30;;;;;;;15.40;14.57;;;17.30;1.00;;;;;;4952209;28;20477;-78
2023/09/06 02:43:58;;;;;;;14.77;13.93;;;17.30;1.00;;;;;;4954182;28;20208;-77
2023/09/06 02:46:29;;;;;;;14.80;14.00;;;17.30;1.00;;;;;;4953715;28;20451;-78
2023/09/06 02:48:58;;;;;;;14.27;13.60;;;17.30;1.00;;;;;;4955766;28;21000;-79
2023/09/06 02:51:29;;;;;;;14.37;13.77;;;17.20;1.00;;;;;;4956587;28;20445;-78
2023/09/06 02:53:57;;;;;;;15.40;14.60;;;17.20;1.00;;;;;;4953164;28;20464;-77
2023/09/06 02:56:25;;;;;;;15.20;14.23;;;17.20;1.00;;;;;;4954125;28;20451;-78
2023/09/06 02:58:53;;;;;;;15.40;14.60;;;17.20;1.00;;;;;;4954632;28;20930;-79
2023/09/06 03:01:21;;;;;;;13.67;13.13;;;17.10;1.00;;;;;;4953331;28;20483;-79
2023/09/06 03:03:53;;;;;;;14.70;14.10;;;17.10;1.00;;;;;;4968192;28;20457;-80
2023/09/06 03:06:32;;;;;;;14.27;13.77;;;17.10;1.00;;;;;;4948633;28;20539;-78
2023/09/06 03:09:06;;;;;;;14.03;13.53;;;17.00;1.00;;;;;;4950707;28;20456;-78
2023/09/06 03:11:34;;;;;;;14.90;14.13;;;17.00;1.00;;;;;;4952905;28;20555;-78
2023/09/06 03:14:04;;;;;;;14.20;13.70;;;17.00;1.00;;;;;;4954556;28;20465;-79
2023/09/06 03:16:38;;;;;;;15.40;14.73;;;17.00;1.00;;;;;;4958444;28;20483;-79
2023/09/06 03:19:10;;;;;;;15.17;14.47;;;16.90;1.00;;;;;;4956267;28;20513;-78
2023/09/06 03:21:38;;;;;;;15.20;14.33;;;16.90;1.00;;;;;;4953816;28;20635;-77
2023/09/06 03:24:11;;;;;;;15.43;14.53;;;16.90;1.00;;;;;;4955208;28;20474;-78
2023/09/06 03:26:43;;;;;;;15.00;14.40;;;16.90;1.00;;;;;;4955260;28;20447;-78
2023/09/06 03:29:11;;;;;;;14.87;13.97;;;16.80;1.00;;;;;;4947368;28;20510;-78
2023/09/06 03:31:42;;;;;;;14.77;13.97;;;16.80;1.00;;;;;;4952928;28;21051;-78
2023/09/06 03:34:13;;;;;;;14.33;13.83;;;16.80;1.00;;;;;;4955728;28;20526;-78
2023/09/06 03:36:42;;;;;;;14.53;13.73;;;16.80;1.00;;;;;;4955041;28;20974;-78
2023/09/06 03:39:13;;;;;;;14.67;14.00;;;16.80;1.00;;;;;;4956439;28;20961;-78
2023/09/06 03:41:42;;;;;;;15.03;14.37;;;16.70;1.00;;;;;;4947851;28;20480;-79
2023/09/06 03:44:10;;;;;;;14.40;13.57;;;16.70;1.00;;;;;;4952513;28;20481;-78
2023/09/06 03:46:39;;;;;;;14.77;14.17;;;16.80;1.00;;;;;;4954647;28;20842;-79
2023/09/06 03:49:08;;;;;;;15.30;14.63;;;16.80;1.00;;;;;;4953580;28;20456;-79
2023/09/06 03:51:36;;;;;;;15.40;14.70;;;16.70;1.00;;;;;;4954181;28;20472;-79
2023/09/06 03:54:06;;;;;;;15.00;14.27;;;16.60;1.00;;;;;;4952900;28;20836;-79
2023/09/06 03:56:38;;;;;;;14.60;14.03;;;16.60;1.00;;;;;;4951392;28;20449;-79
2023/09/06 03:59:08;;;;;;;13.87;13.37;;;16.70;1.00;;;;;;4954146;28;20457;-79
2023/09/06 04:01:36;;;;;;;14.80;14.10;;;16.70;1.00;;;;;;4948772;28;20719;-79
2023/09/06 04:04:07;;;;;;;15.47;14.80;;;16.70;1.00;;;;;;4954675;28;20459;-79
2023/09/06 04:06:36;;;;;;;15.47;14.70;;;16.70;1.00;;;;;;4950960;28;20848;-78
2023/09/06 04:09:05;;;;;;;14.73;14.03;;;16.60;1.00;;;;;;4954375;28;20459;-78
2023/09/06 04:11:34;;;;;;;14.90;14.27;;;16.60;1.00;;;;;;4954225;28;20460;-77
2023/09/06 04:14:03;;;;;;;14.50;13.90;;;16.60;1.00;;;;;;4952341;28;20523;-77
2023/09/06 04:16:33;;;;;;;16.53;15.73;;;16.50;1.00;;;;;;4952694;28;20448;-79
2023/09/06 04:19:01;;;;;;;15.53;14.83;;;16.50;1.00;;;;;;4952970;28;20520;-77
2023/09/06 04:21:29;;;;;;;15.73;14.90;;;16.50;1.00;;;;;;4951436;28;20811;-78
2023/09/06 04:23:57;;;;;;;15.27;14.60;;;16.50;1.00;;;;;;4951271;28;20456;-77
2023/09/06 04:26:26;;;;;;;15.80;15.10;;;16.50;1.00;;;;;;4948116;28;20463;-78
2023/09/06 04:28:54;;;;;;;15.50;14.90;;;16.40;1.00;;;;;;4952854;28;20457;-78
2023/09/06 04:31:24;;;;;;;15.10;14.50;;;16.40;1.00;;;;;;4961158;28;20540;-78
2023/09/06 04:33:52;;;;;;;16.33;15.63;;;16.40;1.00;;;;;;4947798;28;20476;-78
2023/09/06 04:36:20;;;;;;;15.37;14.70;;;16.50;1.00;;;;;;4953961;28;20992;-77
2023/09/06 04:38:48;;;;;;;15.30;14.50;;;16.40;1.00;;;;;;4951256;28;20460;-78
2023/09/06 04:41:17;;;;;;;15.50;14.80;;;16.30;1.00;;;;;;4954382;28;20476;-78
2023/09/06 04:43:46;;;;;;;15.20;14.60;;;16.30;1.00;;;;;;4951798;28;20478;-79
2023/09/06 04:46:14;;;;;;;16.00;14.90;;;16.30;1.00;;;;;;4948689;28;20484;-78
2023/09/06 04:48:46;;;;;;;16.37;15.57;;;16.30;1.00;;;;;;4954194;28;20491;-78
2023/09/06 04:51:15;;;;;;;15.90;15.10;;;16.30;1.00;;;;;;4955378;28;20506;-78
2023/09/06 04:53:43;;;;;;;15.00;14.30;;;16.20;1.00;;;;;;4949608;28;20469;-78
2023/09/06 04:56:12;;;;;;;16.23;15.43;;;16.30;1.00;;;;;;4957029;28;20511;-78
2023/09/06 04:58:40;;;;;;;15.30;14.50;;;16.30;1.00;;;;;;4953922;28;20483;-77
2023/09/06 05:01:08;;;;;;;15.57;14.87;;;16.30;1.00;;;;;;4952297;28;20908;-77
2023/09/06 05:03:37;;;;;;;16.33;15.53;;;16.50;1.00;;;;;;4951866;28;20474;-78
2023/09/06 05:06:07;;;;;;;15.87;15.17;;;16.50;1.00;;;;;;4950377;28;20476;-78
2023/09/06 05:08:35;;;;;;;15.77;15.07;;;16.50;1.00;;;;;;4952899;28;20459;-78
2023/09/06 05:11:03;;;;;;;15.57;14.88;;;16.50;1.00;;;;;;4950719;28;20462;-78
2023/09/06 05:13:31;;;;;;;16.13;15.40;;;16.50;1.00;;;;;;4954016;28;20203;-78
2023/09/06 05:16:01;;;;;;;16.73;15.83;;;16.40;1.00;;;;;;4949875;28;21062;-77
2023/09/06 05:18:30;;;;;;;16.57;15.87;;;16.30;1.00;;;;;;4947805;28;21617;-78
2023/09/06 05:20:59;;;;;;;16.47;15.77;;;16.30;1.00;;;;;;4950990;28;20456;-78
2023/09/06 05:23:29;;;;;;;15.83;15.10;;;16.30;1.00;;;;;;4946946;28;20555;-78
2023/09/06 05:25:57;;;;;;;16.80;16.00;;;16.30;1.00;;;;;;4949947;28;20538;-77
2023/09/06 05:28:25;;;;;;;16.27;15.57;;;16.30;1.00;;;;;;4949171;28;20479;-78
2023/09/06 05:30:53;;;;;;;16.33;15.63;;;16.20;1.00;;;;;;4953109;28;20452;-78
2023/09/06 05:33:21;;;;;;;16.60;15.80;;;16.20;1.00;;;;;;4953250;28;20444;-78
2023/09/06 05:35:49;;;;;;;17.20;16.37;;;16.20;1.00;;;;;;4956395;28;20513;-78
2023/09/06 05:38:18;;;;;;;17.33;16.47;;;16.20;1.00;;;;;;4973600;28;21141;-78
2023/09/06 05:40:48;;;;;;;17.43;16.20;;;16.30;1.00;;;;;;4953252;28;20456;-78
2023/09/06 05:43:16;;;;;;;16.80;16.10;;;16.30;1.00;;;;;;4955290;28;20485;-77
2023/09/06 05:45:44;;;;;;;16.80;15.90;;;16.30;1.00;;;;;;4954220;28;20475;-77
2023/09/06 05:48:13;;;;;;;16.30;15.37;;;16.30;1.00;;;;;;4953258;28;20483;-78
2023/09/06 05:50:41;;;;;;;16.93;16.07;;;16.30;1.00;;;;;;4955265;28;20988;-78
2023/09/06 05:53:09;;;;;;;17.73;16.70;;;16.30;1.00;;;;;;4958105;28;20588;-78
2023/09/06 05:55:38;;;;;;;16.60;15.80;;;16.30;1.00;;;;;;4954436;28;20487;-79
2023/09/06 05:58:07;;;;;;;17.10;16.17;;;16.30;1.00;;;;;;4955566;28;21334;-76
2023/09/06 06:00:36;;;;;;;16.80;16.00;;;16.30;1.00;;;;;;4950928;28;21004;-79
2023/09/06 06:03:05;;;;;;;17.03;16.23;;;16.50;1.00;;;;;;4954199;28;20833;-78
2023/09/06 06:05:33;;;;;;;18.07;16.83;;;16.70;1.00;;;;;;4955388;28;21040;-78
2023/09/06 06:08:01;;;;;;;16.10;15.50;;;16.80;1.00;;;;;;4953310;28;20470;-79
2023/09/06 06:10:34;;;;;;;17.03;16.33;;;17.10;1.00;;;;;;4952662;28;20460;-78
2023/09/06 06:13:03;;;;;;;16.87;15.97;;;17.30;1.00;;;;;;4955238;28;20547;-77
2023/09/06 06:15:33;;;;;;;17.90;16.90;;;17.60;1.00;;;;;;4956066;28;20996;-79
2023/09/06 06:18:02;;;;;;;16.97;16.27;;;17.80;1.00;;;;;;4959072;28;20461;-79
2023/09/06 06:20:31;;;;;;;17.77;16.63;;;18.00;99.90;;;;;;4957173;28;20461;-79
2023/09/06 06:23:11;;;;;;;17.67;16.87;;;18.10;99.90;;;;;;4956751;28;21091;-78
2023/09/06 06:25:39;;;;;;;16.90;16.10;;;18.00;99.90;;;;;;4953141;28;20480;-77
2023/09/06 06:28:07;;;;;;;17.97;17.10;;;18.00;99.90;;;;;;4957327;28;20475;-79
2023/09/06 06:30:37;;;;;;;18.83;17.73;;;18.00;99.90;;;;;;4953504;28;20531;-78
2023/09/06 06:33:06;;;;;;;18.73;17.57;;;18.00;99.90;;;;;;4955182;28;20455;-78
2023/09/06 06:35:36;;;;;;;18.80;17.60;;;18.00;99.90;;;;;;4951268;28;20479;-79
2023/09/06 06:38:04;;;;;;;18.47;17.37;;;18.00;99.90;;;;;;4949752;28;20452;-78
2023/09/06 06:40:36;;;;;;;19.03;17.93;;;18.10;1.00;;;;;;4956576;28;20462;-79
2023/09/06 06:43:05;;;;;;;18.77;17.77;;;18.10;1.00;;;;;;4952719;28;20488;-79
2023/09/06 06:45:33;;;;;;;18.90;18.00;;;18.10;1.00;;;;;;4952631;28;20484;-79
2023/09/06 06:48:02;;;;;;;18.90;18.10;;;18.10;1.00;;;;;;4953046;28;20452;-79
2023/09/06 06:50:30;;;;;;;19.10;18.00;;;18.20;1.00;;;;;;4956861;28;20451;-78
2023/09/06 06:52:58;;;;;;;18.47;17.60;;;18.30;1.00;;;;;;4952710;28;20460;-79
2023/09/06 06:55:27;;;;;;;19.27;18.17;;;18.40;1.00;;;;;;4953983;28;20484;-78
2023/09/06 06:57:55;;;;;;;17.73;16.93;;;18.40;1.00;;;;;;4953564;28;20471;-78
2023/09/06 07:00:23;;;;;;;18.20;17.30;;;18.40;99.90;;;;;;4953768;28;20475;-79
2023/09/06 07:02:51;;;;;;;18.33;17.10;;;18.50;99.90;;;;;;4951862;28;20571;-78
2023/09/06 07:05:20;;;;;;;17.70;16.70;;;18.60;99.90;;;;;;4955198;28;20468;-79
2023/09/06 07:07:49;;;;;;;17.40;16.60;;;18.60;99.90;;;;;;4946476;28;20456;-77
2023/09/06 07:10:17;;;;;;;18.07;17.20;;;18.70;99.90;;;;;;4954129;28;20540;-79
2023/09/06 07:12:45;;;;;;;17.90;17.00;;;18.80;99.90;;;;;;4951013;28;20460;-79
2023/09/06 07:15:13;;;;;;;17.90;17.10;;;18.90;99.90;;;;;;4948912;28;20472;-79
2023/09/06 07:17:42;;;;;;;16.60;16.00;;;18.90;99.90;;;;;;4950275;28;20455;-79
2023/09/06 07:20:12;;;;;;;16.70;16.00;;;19.00;99.90;;;;;;4953260;28;20502;-80
2023/09/06 07:22:41;;;;;;;17.60;16.80;;;19.10;99.90;;;;;;4946385;28;21202;-79
2023/09/06 07:25:13;;;;;;;17.80;17.00;;;19.20;99.90;;;;;;4955914;28;20839;-79
2023/09/06 07:27:41;;;;;;;17.97;17.17;;;19.20;99.90;;;;;;4955412;28;20448;-78
2023/09/06 07:30:10;;;;;;;18.57;17.60;;;19.30;99.90;;;;;;4953835;28;20534;-79
2023/09/06 07:32:39;;;;;;;18.23;17.33;;;19.40;99.90;;;;;;4956263;28;20451;-79
2023/09/06 07:35:08;;;;;;;18.23;17.23;;;19.50;99.90;;;;;;4952961;28;20472;-79
2023/09/06 07:37:36;;;;;;;18.50;17.57;;;19.50;99.90;;;;;;4955040;28;20464;-77
2023/09/06 07:40:08;;;;;;;17.57;16.63;;;19.50;99.90;;;;;;4955066;28;20456;-79
2023/09/06 07:42:38;;;;;;;17.30;16.50;;;19.60;99.90;;;;;;4953309;28;20463;-79
2023/09/06 07:45:07;;;;;;;18.13;17.33;;;19.60;99.90;;;;;;4956843;28;20490;-79
2023/09/06 07:47:36;;;;;;;17.60;16.80;;;19.60;99.90;;;;;;4956088;28;20539;-80
2023/09/06 07:50:05;;;;;;;17.27;16.57;;;19.70;99.90;;;;;;4961543;28;20466;-80
2023/09/06 07:52:34;;;;;;;16.97;16.30;;;19.80;99.90;;;;;;4956712;28;20456;-79
2023/09/06 07:55:02;;;;;;;17.60;16.90;;;19.90;99.90;;;;;;4955711;28;20481;-79
2023/09/06 07:57:31;;;;;;;18.07;17.17;;;20.10;99.90;;;;;;4958112;28;20448;-79
2023/09/06 07:59:59;;;;;;;17.57;16.73;;;20.20;99.90;;;;;;4957795;28;20456;-79
2023/09/06 08:02:27;;;;;;;18.00;17.10;;;20.40;99.90;;;;;;4973536;28;20819;-79
2023/09/06 08:04:55;;;;;;;17.60;16.80;;;20.60;99.90;;;;;;4954163;28;20570;-78
2023/09/06 08:07:24;;;;;;;17.27;16.57;;;20.70;99.90;;;;;;4957226;28;20470;-79
2023/09/06 08:09:52;;;;;;;17.67;16.97;;;20.70;99.90;;;;;;4957511;28;20973;-78
2023/09/06 08:12:20;;;;;;;18.00;17.20;;;20.70;99.90;;;;;;4959222;28;20460;-78
2023/09/06 08:14:49;;;;;;;17.97;17.27;;;20.90;99.90;;;;;;4956916;28;20503;-78
2023/09/06 08:17:17;;;;;;;18.80;18.00;;;20.90;99.90;;;;;;4957190;28;20457;-77
2023/09/06 08:19:45;;;;;;;18.53;17.73;;;21.00;99.90;;;;;;4952482;28;20453;-77
2023/09/06 08:22:14;;;;;;;18.00;17.30;;;21.10;99.90;;;;;;4954452;28;20461;-79
2023/09/06 08:24:42;;;;;;;18.33;17.47;;;21.10;99.90;;;;;;4951708;28;20491;-79
2023/09/06 08:27:10;;;;;;;18.10;17.40;;;21.20;99.90;;;;;;4955473;28;20512;-80
2023/09/06 08:29:38;;;;;;;16.60;15.77;;;21.20;99.90;;;;;;4953936;28;20523;-79
2023/09/06 08:32:08;;;;;;;18.00;17.23;;;21.30;99.90;;;;;;4954284;28;20481;-78
2023/09/06 08:34:37;;;;;;;18.10;17.20;;;21.40;99.90;;;;;;4957735;28;21226;-79
2023/09/06 08:37:05;;;;;;;17.73;16.93;;;21.40;99.90;;;;;;4955198;28;21035;-79
2023/09/06 08:39:34;;;;;;;18.40;17.50;;;21.50;99.90;;;;;;4956263;28;20460;-80
2023/09/06 08:42:04;;;;;;;17.90;17.13;;;21.50;99.90;;;;;;4956576;28;20888;-79
2023/09/06 08:44:33;;;;;;;18.20;17.50;;;21.50;99.90;;;;;;4957187;28;20492;-78
2023/09/06 08:47:07;;;;;;;18.47;17.77;;;21.60;99.90;;;;;;4957730;28;20456;-79
2023/09/06 08:49:39;;;;;;;18.37;17.67;;;21.60;99.90;;;;;;4957973;28;20464;-79
2023/09/06 08:52:10;;;;;;;18.20;17.50;;;21.70;99.90;;;;;;4956731;28;20445;-80
2023/09/06 08:54:39;;;;;;;18.13;17.37;;;21.80;99.90;;;;;;4957209;28;20470;-79
2023/09/06 08:57:07;;;;;;;18.97;18.27;;;21.80;99.90;;;;;;4956681;28;20535;-78
2023/09/06 08:59:35;;;;;;;17.97;17.37;;;21.80;99.90;;;;;;4957343;28;20465;-82
2023/09/06 09:02:04;;;;;;;18.60;17.70;;;21.80;99.90;;;;;;4954746;28;20472;-79
2023/09/06 09:04:32;;;;;;;18.77;17.97;;;21.90;99.90;;;;;;4957610;28;20480;-78
2023/09/06 09:07:03;;;;;;;18.63;17.77;;;22.00;99.90;;;;;;4959011;28;21035;-78
2023/09/06 09:09:31;;;;;;;19.17;18.37;;;22.00;99.90;;;;;;4960266;28;20461;-83
2023/09/06 09:11:59;;;;;;;19.37;18.57;;;22.10;99.90;;;;;;4968167;28;20460;-81
2023/09/06 09:14:27;;;;;;;18.80;18.00;;;22.10;99.90;;;;;;4963816;28;20465;-80
2023/09/06 09:16:56;;;;;;;18.70;17.70;;;22.20;99.90;;;;;;4967066;28;20541;-83
2023/09/06 09:19:24;;;;;;;19.27;18.47;;;22.20;99.90;;;;;;4964711;28;20471;-83
2023/09/06 09:21:55;;;;;;;19.37;18.37;;;22.30;99.90;;;;;;4968181;28;20554;-83
2023/09/06 09:24:29;;;;;;;19.53;18.63;;;22.30;99.90;;;;;;4965467;28;20472;-83
2023/09/06 09:26:58;;;;;;;18.53;17.73;;;22.40;99.90;;;;;;4970108;28;20463;-83
2023/09/06 09:29:28;;;;;;;18.43;17.73;;;22.60;99.90;;;;;;4968743;28;20985;-82
2023/09/06 09:32:02;;;;;;;19.07;17.83;;;22.60;99.90;;;;;;4969186;28;20551;-82
2023/09/06 09:34:31;;;;;;;19.20;18.40;;;22.70;99.90;;;;;;4965372;28;20497;-82
2023/09/06 09:37:02;;;;;;;19.40;18.50;;;22.70;99.90;;;;;;4970893;28;20459;-79
2023/09/06 09:39:31;;;;;;;18.80;17.97;;;22.80;99.90;;;;;;4967232;28;20460;-82
2023/09/06 09:42:00;;;;;;;19.70;18.70;;;22.80;99.90;;;;;;4964767;28;20551;-78
2023/09/06 09:44:28;;;;;;;18.70;17.80;;;22.90;99.90;;;;;;4970105;28;20577;-84
2023/09/06 09:46:57;;;;;;;18.27;17.57;;;22.90;99.90;;;;;;4967845;28;20453;-83
2023/09/06 09:49:30;;;;;;;18.97;18.07;;;23.00;99.90;;;;;;4966755;28;20480;-82
2023/09/06 09:51:58;;;;;;;17.90;17.20;;;23.10;99.90;;;;;;4955922;28;20551;-83
2023/09/06 09:54:30;;;;;;;18.03;17.43;;;23.10;99.90;;;;;;4968363;28;20907;-82
2023/09/06 09:57:05;;;;;;;18.43;17.63;;;23.30;99.90;;;;;;4961389;28;20555;-83
2023/09/06 09:59:34;;;;;;;18.60;17.90;;;23.40;99.90;;;;;;4970838;28;20503;-82
2023/09/06 10:02:04;;;;;;;18.50;17.80;;;23.50;99.90;;;;;;4965486;28;20468;-83
2023/09/06 10:04:37;;;;;;;18.63;17.93;;;23.40;99.90;;;;;;4963127;28;20646;-81
2023/09/06 10:07:08;;;;;;;18.33;17.70;;;23.30;99.90;;;;;;4967541;28;20467;-82
2023/09/06 10:09:39;;;;;;;19.53;18.73;;;23.30;99.90;;;;;;4963129;28;20460;-84
2023/09/06 10:12:12;;;;;;;18.30;17.60;;;23.30;99.90;;;;;;4967413;28;20448;-83
2023/09/06 10:14:41;;;;;;;18.40;17.70;;;23.50;99.90;;;;;;4967499;28;20478;-83
2023/09/06 10:17:11;;;;;;;19.60;18.70;;;23.60;99.90;;;;;;4965137;28;20472;-82
2023/09/06 10:19:42;;;;;;;19.40;18.60;;;23.50;99.90;;;;;;4963845;28;20474;-82
2023/09/06 10:22:22;;;;;;;19.40;18.50;;;23.60;99.90;;;;;;4962882;28;20457;-82
2023/09/06 10:24:53;;;;;;;19.50;18.80;;;23.60;99.90;;;;;;4964647;28;20579;-82
2023/09/06 10:27:32;;;;;;;20.13;18.92;;;23.60;99.90;;;;;;4963044;28;20522;-83
2023/09/06 10:30:00;;;;;;;18.80;18.07;;;23.70;99.90;;;;;;4959075;28;20717;-80
2023/09/06 10:32:41;;;;;;;19.50;18.70;;;23.70;99.90;;;;;;4966291;28;20459;-83
2023/09/06 10:35:24;;;;;;;18.33;17.63;;;23.80;99.90;;;;;;4965196;28;20483;-83
2023/09/06 10:38:02;;;;;;;19.53;18.60;;;23.80;99.90;;;;;;4968139;28;20492;-82
2023/09/06 10:41:04;;;;;;;18.20;17.60;;;23.80;99.90;;;;;;4960216;28;20465;-83
2023/09/06 10:43:57;;;;;;;18.03;17.33;;;23.70;99.90;;;;;;4964155;28;20506;-81
2023/09/06 10:46:28;;;;;;;19.20;18.30;;;23.80;99.90;;;;;;4968610;28;20481;-84
2023/09/06 10:49:20;;;;;;;18.20;17.40;;;23.90;99.90;;;;;;4966284;28;20456;-83
2023/09/06 10:52:00;;;;;;;17.87;17.20;;;24.00;99.90;;;;;;4967733;28;20456;-83
2023/09/06 10:54:37;;;;;;;18.63;17.77;;;24.10;99.90;;;;;;4968002;28;20485;-82
2023/09/06 10:57:08;;;;;;;19.10;18.10;;;24.10;99.90;;;;;;4966946;28;20487;-83
2023/09/06 10:59:44;;;;;;;18.60;17.93;;;24.10;99.90;;;;;;4967149;28;21019;-83
2023/09/06 11:02:25;;;;;;;18.27;17.57;;;24.10;99.90;;;;;;4966877;28;20455;-81
2023/09/06 11:05:07;;;;;;;18.20;17.50;;;24.10;99.90;;;;;;4965429;28;20498;-83
2023/09/06 11:07:40;;;;;;;18.83;17.90;;;24.10;99.90;;;;;;4960838;28;20999;-83
2023/09/06 11:10:22;;;;;;;18.77;17.87;;;24.20;99.90;;;;;;4966506;28;20514;-83
2023/09/06 11:12:53;;;;;;;18.83;18.03;;;24.30;99.90;;;;;;4968745;28;20452;-82
2023/09/06 11:15:24;;;;;;;18.70;17.90;;;24.40;99.90;;;;;;4966978;28;20488;-83
2023/09/06 11:17:59;;;;;;;18.80;18.10;;;24.40;99.90;;;;;;4961920;28;20464;-82
2023/09/06 11:20:28;;;;;;;19.60;18.80;;;24.40;99.90;;;;;;4964833;28;20508;-82
2023/09/06 11:22:58;;;;;;;19.63;18.70;;;24.40;99.90;;;;;;4967448;28;21018;-83
2023/09/06 11:25:28;;;;;;;19.60;18.90;;;24.40;99.90;;;;;;4964283;28;20847;-81
2023/09/06 11:27:59;;;;;;;19.30;18.47;;;24.50;99.90;;;;;;4962367;28;20454;-84
2023/09/06 11:30:32;;;;;;;19.40;18.70;;;24.40;99.90;;;;;;4968043;28;20456;-85
2023/09/06 11:33:04;;;;;;;19.37;18.67;;;24.50;99.90;;;;;;4967098;28;20455;-83
2023/09/06 11:35:38;;;;;;;20.20;19.30;;;24.50;99.90;;;;;;4960442;28;20482;-82
2023/09/06 11:38:09;;;;;;;20.23;19.33;;;24.60;99.90;;;;;;4966015;28;20470;-84
2023/09/06 11:40:39;;;;;;;20.23;19.33;;;24.70;99.90;;;;;;4963330;28;20472;-82
2023/09/06 11:43:10;;;;;;;19.73;18.90;;;24.70;99.90;;;;;;4959216;28;20471;-83
2023/09/06 11:45:43;;;;;;;18.60;17.90;;;24.70;99.90;;;;;;4956259;28;20487;-84
2023/09/06 11:48:18;;;;;;;19.00;18.30;;;24.70;99.90;;;;;;4965588;28;20463;-83
2023/09/06 11:50:51;;;;;;;19.10;18.40;;;24.70;99.90;;;;;;4965025;28;20506;-84
2023/09/06 11:53:19;;;;;;;19.87;19.07;;;24.60;99.90;;;;;;4963917;28;20442;-83
2023/09/06 11:55:50;;;;;;;18.87;18.13;;;24.70;99.90;;;;;;4962146;28;20465;-82
2023/09/06 11:58:20;;;;;;;19.85;19.00;;;24.80;99.90;;;;;;4962273;28;20449;-80
2023/09/06 12:00:50;;;;;;;19.50;18.70;;;24.70;99.90;;;;;;4963231;28;20274;-82
2023/09/06 12:03:27;;;;;;;18.63;17.80;;;24.80;99.90;;;;;;4957341;28;20980;-80
2023/09/06 12:06:00;;;;;;;19.03;18.30;;;24.70;99.90;;;;;;4958641;28;20484;-81
2023/09/06 12:08:30;;;;;;;19.93;18.90;;;24.70;99.90;;;;;;4963702;28;20869;-83
2023/09/06 12:11:08;;;;;;;20.10;19.20;;;24.80;99.90;;;;;;4964993;28;20461;-81
2023/09/06 12:13:37;;;;;;;19.30;18.60;;;24.90;99.90;;;;;;4966923;28;20845;-83
2023/09/06 12:16:09;;;;;;;19.03;18.33;;;25.00;99.90;;;;;;4960913;28;20479;-85
2023/09/06 12:18:37;;;;;;;18.90;17.90;;;24.90;99.90;;;;;;4971577;28;20471;-83
2023/09/06 12:21:07;;;;;;;19.00;18.20;;;24.90;99.90;;;;;;4960561;28;20532;-85
2023/09/06 12:23:36;;;;;;;18.17;17.50;;;24.80;99.90;;;;;;4962728;28;20489;-81
2023/09/06 12:26:06;;;;;;;18.83;17.93;;;24.80;99.90;;;;;;4963728;28;20484;-82
2023/09/06 12:28:34;;;;;;;18.50;17.80;;;25.00;99.90;;;;;;4959347;28;20483;-82
2023/09/06 12:31:04;;;;;;;19.00;18.30;;;25.00;99.90;;;;;;4960334;28;20466;-82
2023/09/06 12:33:48;;;;;;;18.37;17.70;;;25.20;99.90;;;;;;4962513;28;21059;-84
2023/09/06 12:36:18;;;;;;;19.50;18.60;;;25.20;99.90;;;;;;4964784;28;20473;-83
2023/09/06 12:38:46;;;;;;;19.30;18.50;;;25.00;99.90;;;;;;4959228;28;21191;-83
2023/09/06 12:41:14;;;;;;;19.33;18.50;;;25.00;99.90;;;;;;4961184;28;20468;-83
2023/09/06 12:43:42;;;;;;;18.40;17.70;;;25.10;99.90;;;;;;4959814;28;20555;-82